Time;durP1;ratioP1;P1;durP2;ratioP2;P2;SDS_P1;SDS_P2;PMS_P1;PMS_P2;Temp;Humidity;BMP_temperature;BMP_pressure;BME280_temperature;BME280_humidity;BME280_pressure;Samples;Min_cycle;Max_cycle;Signal;HPM_P1;HPM_P2
2023/03/07 00:02:24;;;;;;;;;;;;;;;4.67;100.00;99960.56;5051604;28;19975;-58
2023/03/07 00:04:49;;;;;;;;;;;;;;;4.67;100.00;99964.00;5050669;28;20019;-57
2023/03/07 00:07:15;;;;;;;;;;;;;;;4.63;100.00;99962.16;5051689;28;20392;-57
2023/03/07 00:09:40;;;;;;;;;;;;;;;4.61;100.00;99962.88;5052053;28;20350;-58
2023/03/07 00:12:06;;;;;;;;;;;;;;;4.57;100.00;99962.78;5051725;28;20688;-58
2023/03/07 00:14:32;;;;;;;;;;;;;;;4.53;100.00;99960.94;5047285;28;19917;-58
2023/03/07 00:16:57;;;;;;;;;;;;;;;4.49;100.00;99961.66;5049150;28;19913;-57
2023/03/07 00:19:22;;;;;;;;;;;;;;;4.47;100.00;99960.69;5051584;28;20384;-58
2023/03/07 00:21:48;;;;;;;;;;;;;;;4.45;100.00;99958.91;5052095;28;19955;-58
2023/03/07 00:24:13;;;;;;;;;;;;;;;4.38;100.00;99947.63;5049261;28;19979;-58
2023/03/07 00:26:38;;;;;;;;;;;;;;;4.37;100.00;99945.00;5050992;28;19924;-57
2023/03/07 00:29:05;;;;;;;;;;;;;;;4.32;100.00;99946.53;5052214;28;19933;-58
2023/03/07 00:31:30;;;;;;;;;;;;;;;4.28;100.00;99951.50;5050602;28;20369;-58
2023/03/07 00:33:56;;;;;;;;;;;;;;;4.28;100.00;99950.63;5053033;28;19924;-57
2023/03/07 00:36:21;;;;;;;;;;;;;;;4.25;100.00;99943.75;5051105;28;19921;-58
2023/03/07 00:38:47;;;;;;;;;;;;;;;4.22;100.00;99940.22;5050465;28;20388;-58
2023/03/07 00:41:20;;;;;;;;;;;;;;;4.19;100.00;99952.84;5050092;28;19921;-57
2023/03/07 00:43:45;;;;;;;;;;;;;;;4.16;100.00;99945.06;5051958;28;20335;-57
2023/03/07 00:46:11;;;;;;;;;;;;;;;4.14;100.00;99950.09;5050179;28;19999;-58
2023/03/07 00:48:37;;;;;;;;;;;;;;;4.12;100.00;99940.66;5050179;28;19917;-58
2023/03/07 00:51:03;;;;;;;;;;;;;;;4.10;100.00;99940.59;5050437;28;19964;-58
2023/03/07 00:53:29;;;;;;;;;;;;;;;4.09;100.00;99943.09;5051276;28;19999;-58
2023/03/07 00:55:58;;;;;;;;;;;;;;;4.08;100.00;99937.16;5047427;28;19920;-57
2023/03/07 00:58:24;;;;;;;;;;;;;;;4.06;100.00;99940.41;5048524;28;20388;-58
2023/03/07 01:00:49;;;;;;;;;;;;;;;4.04;100.00;99937.81;5049650;28;19925;-58
2023/03/07 01:03:14;;;;;;;;;;;;;;;4.06;100.00;99937.88;5048927;28;19964;-57
2023/03/07 01:05:40;;;;;;;;;;;;;;;4.04;100.00;99937.81;5035247;28;19970;-57
2023/03/07 01:08:05;;;;;;;;;;;;;;;4.03;100.00;99939.50;5051128;28;19947;-58
2023/03/07 01:10:32;;;;;;;;;;;;;;;4.05;100.00;99929.38;5049982;28;19932;-57
2023/03/07 01:12:57;;;;;;;;;;;;;;;4.07;100.00;99929.47;5050560;28;20270;-57
2023/03/07 01:15:23;;;;;;;;;;;;;;;4.06;100.00;99923.47;5050300;28;19913;-57
2023/03/07 01:17:48;;;;;;;;;;;;;;;4.06;100.00;99930.25;5048364;28;19921;-57
2023/03/07 01:20:13;;;;;;;;;;;;;;;4.06;100.00;99918.38;5050029;28;19964;-57
2023/03/07 01:22:38;;;;;;;;;;;;;;;4.07;100.00;99924.38;5050477;28;19916;-57
2023/03/07 01:25:04;;;;;;;;;;;;;;;4.06;100.00;99918.38;5051248;28;19970;-57
2023/03/07 01:27:29;;;;;;;;;;;;;;;4.06;100.00;99909.88;5049774;28;20015;-57
2023/03/07 01:29:54;;;;;;;;;;;;;;;4.07;100.00;99915.06;5048423;28;19955;-56
2023/03/07 01:32:19;;;;;;;;;;;;;;;4.08;100.00;99910.84;5050131;28;20003;-57
2023/03/07 01:34:45;;;;;;;;;;;;;;;4.08;100.00;99901.53;5049397;28;19963;-57
2023/03/07 01:37:10;;;;;;;;;;;;;;;4.09;100.00;99897.31;5048213;28;21651;-56
2023/03/07 01:39:35;;;;;;;;;;;;;;;4.11;100.00;99896.53;5048203;28;19936;-57
2023/03/07 01:42:01;;;;;;;;;;;;;;;4.11;100.00;99901.63;5052086;28;19963;-56
2023/03/07 01:44:26;;;;;;;;;;;;;;;4.13;100.00;99892.41;5050699;28;19940;-57
2023/03/07 01:46:53;;;;;;;;;;;;;;;4.13;100.00;99892.41;5052386;28;20286;-57
2023/03/07 01:49:18;;;;;;;;;;;;;;;4.15;100.00;99889.91;5047363;28;19924;-56
2023/03/07 01:51:46;;;;;;;;;;;;;;;4.16;100.00;99884.88;5050393;28;19921;-57
2023/03/07 01:54:14;;;;;;;;;;;;;;;4.19;100.00;99885.00;5047583;28;19917;-56
2023/03/07 01:56:40;;;;;;;;;;;;;;;4.20;100.00;99889.28;5049686;28;19917;-57
2023/03/07 01:59:06;;;;;;;;;;;;;;;4.21;100.00;99890.13;5045525;28;19935;-57
2023/03/07 02:01:32;;;;;;;;;;;;;;;4.22;100.00;99881.69;5047363;28;20271;-56
2023/03/07 02:04:01;;;;;;;;;;;;;;;4.24;100.00;99880.91;5048857;28;19988;-56
2023/03/07 02:06:29;;;;;;;;;;;;;;;4.25;100.00;99877.59;5047387;28;19923;-57
2023/03/07 02:08:55;;;;;;;;;;;;;;;4.27;100.00;99883.59;5047406;28;19924;-57
2023/03/07 02:11:21;;;;;;;;;;;;;;;4.28;100.00;99877.69;5048482;28;19921;-57
2023/03/07 02:13:46;;;;;;;;;;;;;;;4.30;100.00;99870.97;5029575;28;19923;-56
2023/03/07 02:16:12;;;;;;;;;;;;;;;4.31;100.00;99869.31;5050931;28;19913;-59
2023/03/07 02:18:42;;;;;;;;;;;;;;;4.35;100.00;99870.28;5049170;28;20016;-57
2023/03/07 02:21:22;;;;;;;;;;;;;;;4.35;100.00;99860.09;5045159;28;20270;-57
2023/03/07 02:24:00;;;;;;;;;;;;;;;4.36;100.00;99857.59;5048460;28;20340;-57
2023/03/07 02:26:34;;;;;;;;;;;;;;;4.35;100.00;99860.97;5048046;28;19916;-57
2023/03/07 02:29:00;;;;;;;;;;;;;;;4.35;100.00;99855.00;5048689;28;19920;-57
2023/03/07 02:31:26;;;;;;;;;;;;;;;4.33;100.00;99852.41;5046414;28;20015;-57
2023/03/07 02:33:51;;;;;;;;;;;;;;;4.34;100.00;99854.16;5047705;28;20007;-56
2023/03/07 02:36:19;;;;;;;;;;;;;;;4.34;100.00;99854.16;5046664;28;20027;-57
2023/03/07 02:38:46;;;;;;;;;;;;;;;4.33;100.00;99847.34;5050828;28;20385;-57
2023/03/07 02:41:12;;;;;;;;;;;;;;;4.35;100.00;99852.47;5042693;28;19959;-57
2023/03/07 02:43:37;;;;;;;;;;;;;;;4.35;100.00;99844.84;5048339;28;19925;-57
2023/03/07 02:46:03;;;;;;;;;;;;;;;4.35;100.00;99845.69;5051876;28;19917;-57
2023/03/07 02:48:28;;;;;;;;;;;;;;;4.37;100.00;99843.19;5047490;28;19935;-58
2023/03/07 02:50:53;;;;;;;;;;;;;;;4.37;100.00;99833.91;5048162;28;19924;-57
2023/03/07 02:53:19;;;;;;;;;;;;;;;4.38;100.00;99838.19;5045200;28;20751;-57
2023/03/07 02:55:44;;;;;;;;;;;;;;;4.40;100.00;99844.19;5044539;28;19933;-56
2023/03/07 02:58:09;;;;;;;;;;;;;;;4.39;100.00;99834.81;5049082;28;19925;-57
2023/03/07 03:00:35;;;;;;;;;;;;;;;4.40;100.00;99838.25;5046448;28;20292;-57
2023/03/07 03:03:01;;;;;;;;;;;;;;;4.38;100.00;99839.88;5041285;28;19921;-59
2023/03/07 03:05:26;;;;;;;;;;;;;;;4.37;100.00;99836.47;5051036;28;19927;-56
2023/03/07 03:07:51;;;;;;;;;;;;;;;4.36;100.00;99836.38;5048768;28;19921;-56
2023/03/07 03:10:17;;;;;;;;;;;;;;;4.33;100.00;99829.50;5049046;28;19921;-57
2023/03/07 03:12:42;;;;;;;;;;;;;;;4.34;100.00;99838.88;5048679;28;19921;-57
2023/03/07 03:15:08;;;;;;;;;;;;;;;4.34;100.00;99835.47;5039170;28;19920;-57
2023/03/07 03:17:33;;;;;;;;;;;;;;;4.34;100.00;99840.56;5043673;28;19923;-57
2023/03/07 03:19:59;;;;;;;;;;;;;;;4.33;100.00;99838.84;5048377;28;19990;-57
2023/03/07 03:22:24;;;;;;;;;;;;;;;4.31;100.00;99831.16;5047096;28;19927;-59
2023/03/07 03:24:49;;;;;;;;;;;;;;;4.31;100.00;99828.59;5048787;28;19921;-57
2023/03/07 03:27:15;;;;;;;;;;;;;;;4.33;100.00;99832.06;5048531;28;19923;-57
2023/03/07 03:29:40;;;;;;;;;;;;;;;4.34;100.00;99838.00;5048629;28;20349;-57
2023/03/07 03:32:05;;;;;;;;;;;;;;;4.32;100.00;99827.78;5049449;28;19955;-57
2023/03/07 03:34:30;;;;;;;;;;;;;;;4.30;100.00;99826.84;5048922;28;19950;-57
2023/03/07 03:36:56;;;;;;;;;;;;;;;4.27;100.00;99819.97;5052627;28;19947;-57
2023/03/07 03:39:21;;;;;;;;;;;;;;;4.26;100.00;99820.78;5051722;28;20369;-58
2023/03/07 03:41:46;;;;;;;;;;;;;;;4.25;100.00;99819.06;5059202;28;19939;-57
2023/03/07 03:44:11;;;;;;;;;;;;;;;4.25;100.00;99811.44;5050816;28;19920;-58
2023/03/07 03:46:37;;;;;;;;;;;;;;;4.26;100.00;99822.47;5051960;28;19917;-57
2023/03/07 03:49:02;;;;;;;;;;;;;;;4.22;100.00;99803.66;5052035;28;19977;-57
2023/03/07 03:51:28;;;;;;;;;;;;;;;4.22;100.00;99798.59;5051598;28;20074;-58
2023/03/07 03:53:53;;;;;;;;;;;;;;;4.23;100.00;99799.44;5049206;28;20344;-57
2023/03/07 03:56:20;;;;;;;;;;;;;;;4.24;100.00;99796.94;5052228;28;20369;-57
2023/03/07 03:58:46;;;;;;;;;;;;;;;4.24;100.00;99791.00;5055899;28;19917;-57
2023/03/07 04:01:12;;;;;;;;;;;;;;;4.22;100.00;99795.16;5052108;28;20025;-57
2023/03/07 04:03:39;;;;;;;;;;;;;;;4.20;100.00;99789.16;5049715;28;19921;-58
2023/03/07 04:06:05;;;;;;;;;;;;;;;4.19;100.00;99787.44;5051231;28;19921;-57
2023/03/07 04:08:31;;;;;;;;;;;;;;;4.17;100.00;99782.28;5036041;28;19924;-57
2023/03/07 04:10:56;;;;;;;;;;;;;;;4.15;100.00;99778.81;5058769;28;19923;-57
2023/03/07 04:13:21;;;;;;;;;;;;;;;4.14;100.00;99773.69;5050827;28;19976;-57
2023/03/07 04:15:46;;;;;;;;;;;;;;;4.14;100.00;99769.47;5051579;28;19917;-57
2023/03/07 04:18:12;;;;;;;;;;;;;;;4.11;100.00;99768.47;5052120;28;19956;-58
2023/03/07 04:20:37;;;;;;;;;;;;;;;4.11;100.00;99765.94;5053058;28;19929;-58
2023/03/07 04:23:03;;;;;;;;;;;;;;;4.11;100.00;99761.69;5050675;28;20348;-57
2023/03/07 04:25:28;;;;;;;;;;;;;;;4.10;100.00;99759.97;5053458;28;19921;-57
2023/03/07 04:27:53;;;;;;;;;;;;;;;4.12;100.00;99757.47;5049518;28;19982;-57
2023/03/07 04:30:19;;;;;;;;;;;;;;;4.11;100.00;99759.16;5051696;28;19925;-57
2023/03/07 04:32:44;;;;;;;;;;;;;;;4.10;100.00;99751.47;5052473;28;20020;-58
2023/03/07 04:35:09;;;;;;;;;;;;;;;4.12;100.00;99758.34;5051739;28;19925;-58
2023/03/07 04:37:34;;;;;;;;;;;;;;;4.11;100.00;99748.13;5045954;28;19990;-57
2023/03/07 04:39:59;;;;;;;;;;;;;;;4.11;100.00;99748.13;5052302;28;19947;-58
2023/03/07 04:42:25;;;;;;;;;;;;;;;4.08;100.00;99748.88;5051426;28;19921;-57
2023/03/07 04:44:50;;;;;;;;;;;;;;;4.08;100.00;99748.03;5055854;28;19942;-57
2023/03/07 04:47:15;;;;;;;;;;;;;;;4.07;100.00;99747.16;5032693;28;20381;-57
2023/03/07 04:49:40;;;;;;;;;;;;;;;4.08;100.00;99745.47;5056518;28;19967;-58
2023/03/07 04:52:06;;;;;;;;;;;;;;;4.05;100.00;99748.75;5053635;28;19924;-57
2023/03/07 04:54:31;;;;;;;;;;;;;;;4.06;100.00;99744.53;5052291;28;19917;-57
2023/03/07 04:56:56;;;;;;;;;;;;;;;4.06;100.00;99735.22;5051064;28;20293;-57
2023/03/07 04:59:22;;;;;;;;;;;;;;;4.07;100.00;99731.03;5048962;28;20028;-57
2023/03/07 05:01:47;;;;;;;;;;;;;;;4.07;100.00;99731.91;5050779;28;20325;-57
2023/03/07 05:04:12;;;;;;;;;;;;;;;4.06;100.00;99727.59;5059387;28;19921;-57
2023/03/07 05:06:37;;;;;;;;;;;;;;;4.07;100.00;99731.91;5048960;28;20340;-57
2023/03/07 05:09:03;;;;;;;;;;;;;;;4.05;100.00;99730.97;5051057;28;20395;-57
2023/03/07 05:11:28;;;;;;;;;;;;;;;4.06;100.00;99739.44;5048526;28;20520;-57
2023/03/07 05:13:54;;;;;;;;;;;;;;;4.06;100.00;99734.38;5054222;28;19964;-57
2023/03/07 05:16:19;;;;;;;;;;;;;;;4.04;100.00;99725.00;5050589;28;20011;-57
2023/03/07 05:18:44;;;;;;;;;;;;;;;4.06;100.00;99729.28;5046458;28;20366;-57
2023/03/07 05:21:09;;;;;;;;;;;;;;;4.04;100.00;99726.69;5047101;28;20019;-57
2023/03/07 05:23:35;;;;;;;;;;;;;;;4.07;100.00;99734.44;5049712;28;19920;-57
2023/03/07 05:26:00;;;;;;;;;;;;;;;4.08;100.00;99730.22;5049538;28;19917;-57
2023/03/07 05:28:25;;;;;;;;;;;;;;;4.06;100.00;99730.13;5049011;28;19925;-57
2023/03/07 05:30:51;;;;;;;;;;;;;;;4.07;100.00;99720.84;5047278;28;19931;-59
2023/03/07 05:33:16;;;;;;;;;;;;;;;4.07;100.00;99724.28;5049200;28;19921;-58
2023/03/07 05:35:42;;;;;;;;;;;;;;;4.05;100.00;99720.78;5049195;28;19925;-57
2023/03/07 05:38:07;;;;;;;;;;;;;;;4.03;100.00;99714.78;5047577;28;19943;-57
2023/03/07 05:40:32;;;;;;;;;;;;;;;4.03;100.00;99714.78;5046418;28;19947;-57
2023/03/07 05:42:58;;;;;;;;;;;;;;;4.04;100.00;99716.50;5048650;28;20267;-57
2023/03/07 05:45:23;;;;;;;;;;;;;;;4.05;100.00;99720.78;5049871;28;19917;-57
2023/03/07 05:47:48;;;;;;;;;;;;;;;4.06;100.00;99721.66;5049893;28;19923;-57
2023/03/07 05:50:14;;;;;;;;;;;;;;;4.04;100.00;99727.53;5049306;28;20008;-58
2023/03/07 05:52:39;;;;;;;;;;;;;;;4.06;100.00;99719.09;5054103;28;19920;-57
2023/03/07 05:55:05;;;;;;;;;;;;;;;4.06;100.00;99721.66;5049197;28;19917;-57
2023/03/07 05:57:31;;;;;;;;;;;;;;;4.05;100.00;99715.69;5052004;28;19917;-57
2023/03/07 05:59:56;;;;;;;;;;;;;;;4.06;100.00;99714.00;5048424;28;20434;-57
2023/03/07 06:02:21;;;;;;;;;;;;;;;4.06;100.00;99707.25;5047418;28;19929;-58
2023/03/07 06:04:47;;;;;;;;;;;;;;;4.08;100.00;99723.44;5041904;28;19936;-57
2023/03/07 06:07:12;;;;;;;;;;;;;;;4.07;100.00;99721.72;5046148;28;20015;-57
2023/03/07 06:09:37;;;;;;;;;;;;;;;4.08;100.00;99722.59;5041692;28;19928;-56
2023/03/07 06:12:03;;;;;;;;;;;;;;;4.09;100.00;99714.13;5040870;28;19952;-57
2023/03/07 06:14:29;;;;;;;;;;;;;;;4.07;100.00;99711.56;5043856;28;19921;-57
2023/03/07 06:16:54;;;;;;;;;;;;;;;4.05;100.00;99713.16;5043053;28;20391;-56
2023/03/07 06:19:20;;;;;;;;;;;;;;;4.06;100.00;99721.66;5044666;28;19928;-57
2023/03/07 06:21:45;;;;;;;;;;;;;;;4.03;100.00;99720.72;5022855;28;19936;-59
2023/03/07 06:24:10;;;;;;;;;;;;;;;3.98;100.00;99714.59;5045199;28;19950;-57
2023/03/07 06:26:35;;;;;;;;;;;;;;;3.95;100.00;99723.81;5042261;28;20059;-57
2023/03/07 06:29:00;;;;;;;;;;;;;;;3.92;100.00;99723.69;5044750;28;20012;-57
2023/03/07 06:31:26;;;;;;;;;;;;;;;3.89;100.00;99723.59;5044502;28;20503;-57
2023/03/07 06:33:51;;;;;;;;;;;;;;;3.85;100.00;99726.84;5041781;28;19928;-57
2023/03/07 06:36:17;;;;;;;;;;;;;;;3.82;100.00;99730.13;5042861;28;19966;-58
2023/03/07 06:38:43;;;;;;;;;;;;;;;3.82;100.00;99730.13;5045702;28;20022;-59
2023/03/07 06:41:08;;;;;;;;;;;;;;;3.79;100.00;99719.84;5046146;28;20424;-57
2023/03/07 06:43:33;;;;;;;;;;;;;;;3.79;100.00;99721.53;5045668;28;19928;-57
2023/03/07 06:45:59;;;;;;;;;;;;;;;3.76;100.00;99725.69;5046689;28;19929;-57
2023/03/07 06:48:24;;;;;;;;;;;;;;;3.73;100.00;99724.72;5051651;28;19929;-57
2023/03/07 06:50:50;;;;;;;;;;;;;;;3.70;100.00;99727.13;5052305;28;19916;-57
2023/03/07 06:53:15;;;;;;;;;;;;;;;3.66;100.00;99721.06;5026935;28;19921;-57
2023/03/07 06:55:40;;;;;;;;;;;;;;;3.59;100.00;99724.19;5047523;28;19928;-57
2023/03/07 06:58:06;;;;;;;;;;;;;;;3.54;100.00;99723.16;5048038;28;20428;-57
2023/03/07 07:00:33;;;;;;;;;;;;;;;3.47;100.00;99729.69;5046408;28;20332;-57
2023/03/07 07:02:58;;;;;;;;;;;;;;;3.39;100.00;99736.13;5047191;28;20007;-57
2023/03/07 07:05:24;;;;;;;;;;;;;;;3.35;100.00;99738.50;5042807;28;20023;-57
2023/03/07 07:07:49;;;;;;;;;;;;;;;3.33;100.00;99737.56;5048875;28;19978;-57
2023/03/07 07:10:14;;;;;;;;;;;;;;;3.32;100.00;99740.91;5049753;28;20326;-57
2023/03/07 07:12:40;;;;;;;;;;;;;;;3.29;100.00;99746.75;5056264;28;19913;-56
2023/03/07 07:15:05;;;;;;;;;;;;;;;3.23;100.00;99747.38;5047616;28;19952;-57
2023/03/07 07:17:31;;;;;;;;;;;;;;;3.20;100.00;99744.72;5053500;28;19921;-57
2023/03/07 07:19:56;;;;;;;;;;;;;;;3.17;100.00;99736.13;5049504;28;19917;-57
2023/03/07 07:22:22;;;;;;;;;;;;;;;3.13;100.00;99739.34;5052304;28;19921;-56
2023/03/07 07:24:48;;;;;;;;;;;;;;;3.11;100.00;99736.75;5051222;28;19920;-57
2023/03/07 07:27:13;;;;;;;;;;;;;;;3.10;100.00;99740.09;5047362;28;19916;-57
2023/03/07 07:29:38;;;;;;;;;;;;;;;3.07;100.00;99746.72;5051655;28;19929;-57
2023/03/07 07:32:03;;;;;;;;;;;;;;;3.04;100.00;99760.16;5052394;28;19923;-57
2023/03/07 07:34:29;;;;;;;;;;;;;;;3.02;100.00;99761.75;5051463;28;19921;-57
2023/03/07 07:36:55;;;;;;;;;;;;;;;2.98;100.00;99759.94;5050922;28;20346;-57
2023/03/07 07:39:20;;;;;;;;;;;;;;;2.95;100.00;99765.72;5050349;28;19936;-56
2023/03/07 07:41:46;;;;;;;;;;;;;;;2.95;100.00;99775.03;5046550;28;19917;-57
2023/03/07 07:44:12;;;;;;;;;;;;;;;2.91;100.00;99789.28;5050258;28;19918;-57
2023/03/07 07:46:37;;;;;;;;;;;;;;;2.86;100.00;99787.34;5051187;28;19917;-56
2023/03/07 07:49:02;;;;;;;;;;;;;;;2.82;100.00;99793.09;5046472;28;19940;-57
2023/03/07 07:51:28;;;;;;;;;;;;;;;2.78;100.00;99797.16;5051101;28;19917;-57
2023/03/07 07:53:53;;;;;;;;;;;;;;;2.75;100.00;99806.34;5051005;28;19920;-57
2023/03/07 07:56:18;;;;;;;;;;;;;;;2.72;100.00;99807.06;5054271;28;19921;-58
2023/03/07 07:58:43;;;;;;;;;;;;;;;2.69;100.00;99805.28;5044583;28;19963;-58
2023/03/07 08:01:16;;;;;;;;;;;;;;;2.68;100.00;99803.53;5047128;28;19951;-57
2023/03/07 08:03:41;;;;;;;;;;;;;;;2.68;100.00;99808.63;5049447;28;19931;-57
2023/03/07 08:06:07;;;;;;;;;;;;;;;2.63;100.00;99812.63;5053505;28;19920;-57
2023/03/07 08:08:32;;;;;;;;;;;;;;;2.60;100.00;99809.94;5048815;28;19960;-57
2023/03/07 08:10:57;;;;;;;;;;;;;;;2.54;100.00;99812.22;5050922;28;19927;-57
2023/03/07 08:13:22;;;;;;;;;;;;;;;2.48;100.00;99816.16;5041442;28;19982;-57
2023/03/07 08:15:48;;;;;;;;;;;;;;;2.45;100.00;99809.31;5053829;28;19917;-60
2023/03/07 08:18:13;;;;;;;;;;;;;;;2.46;100.00;99822.84;5049179;28;19925;-56
2023/03/07 08:20:40;;;;;;;;;;;;;;;2.42;100.00;99816.75;5047190;28;19929;-56
2023/03/07 08:23:05;;;;;;;;;;;;;;;2.40;100.00;99826.84;5048285;28;20003;-55
2023/03/07 08:25:31;;;;;;;;;;;;;;;2.40;100.00;99825.97;5032426;28;20019;-56
2023/03/07 08:27:56;;;;;;;;;;;;;;;2.36;100.00;99829.19;5051671;28;19917;-55
2023/03/07 08:30:26;;;;;;;;;;;;;;;2.31;100.00;99826.47;5027451;28;19925;-55
2023/03/07 08:32:52;;;;;;;;;;;;;;;2.29;100.00;99829.72;5029456;28;19945;-55
2023/03/07 08:35:17;;;;;;;;;;;;;;;2.24;100.00;99829.50;5024203;28;20297;-55
2023/03/07 08:37:43;;;;;;;;;;;;;;;2.21;100.00;99836.13;5027867;28;19929;-56
2023/03/07 08:40:08;;;;;;;;;;;;;;;2.19;100.00;99837.75;5028937;28;19946;-55
2023/03/07 08:42:34;;;;;;;;;;;;;;;2.19;100.00;99831.00;5032156;28;19929;-56
2023/03/07 08:44:59;;;;;;;;;;;;;;;2.22;100.00;99830.25;5030471;28;19917;-56
2023/03/07 08:47:24;;;;;;;;;;;;;;;2.18;100.00;99824.16;5024637;28;19929;-56
2023/03/07 08:49:49;;;;;;;;;;;;;;;2.21;100.00;99823.44;5033742;28;19921;-56
2023/03/07 08:52:15;;;;;;;;;;;;;;;2.18;100.00;99820.75;5026265;28;19929;-56
2023/03/07 08:54:40;;;;;;;;;;;;;;;2.15;100.00;99824.91;5032715;28;19932;-56
2023/03/07 08:57:05;;;;;;;;;;;;;;;2.19;100.00;99825.06;5029913;28;20015;-56
2023/03/07 08:59:30;;;;;;;;;;;;;;;2.22;100.00;99827.72;5025949;28;19928;-56
2023/03/07 09:01:56;;;;;;;;;;;;;;;2.22;100.00;99827.72;5025188;28;19917;-56
2023/03/07 09:04:21;;;;;;;;;;;;;;;2.23;100.00;99819.28;5029634;28;20330;-56
2023/03/07 09:06:47;;;;;;;;;;;;;;;2.25;100.00;99830.41;5029957;28;19991;-56
2023/03/07 09:09:12;;;;;;;;;;;;;;;2.29;100.00;99824.66;5028884;28;19925;-57
2023/03/07 09:11:37;;;;;;;;;;;;;;;2.30;100.00;99833.97;5029415;28;20440;-58
2023/03/07 09:14:02;;;;;;;;;;;;;;;2.27;100.00;99823.72;5028781;28;20011;-56
2023/03/07 09:16:28;;;;;;;;;;;;;;;2.27;100.00;99829.66;5032632;28;19929;-60
2023/03/07 09:18:53;;;;;;;;;;;;;;;2.26;100.00;99821.97;5028855;28;19924;-56
2023/03/07 09:21:18;;;;;;;;;;;;;;;2.24;100.00;99832.03;5029505;28;20373;-56
2023/03/07 09:23:44;;;;;;;;;;;;;;;2.21;100.00;99836.13;5028953;28;20011;-56
2023/03/07 09:26:09;;;;;;;;;;;;;;;2.21;100.00;99838.66;5029755;28;19990;-56
2023/03/07 09:28:34;;;;;;;;;;;;;;;2.25;100.00;99833.81;5027087;28;19960;-56
2023/03/07 09:31:05;;;;;;;;;;;;;;;2.32;100.00;99834.94;5043054;28;19951;-56
2023/03/07 09:33:30;;;;;;;;;;;;;;;2.35;100.00;99841.00;5056160;28;19967;-57
2023/03/07 09:35:55;;;;;;;;;;;;;;;2.42;100.00;99837.94;5046883;28;19976;-56
2023/03/07 09:38:21;;;;;;;;;;;;;;;2.48;100.00;99844.06;5044880;28;20420;-56
2023/03/07 09:40:47;;;;;;;;;;;;;;;2.49;100.00;99846.69;5044073;28;20265;-56
2023/03/07 09:43:24;;;;;;;;;;;;;;;2.51;100.00;99847.63;5027795;28;19925;-56
2023/03/07 09:46:03;;;;;;;;;;;;;;;2.51;100.00;99837.47;5047045;28;20421;-56
2023/03/07 09:48:44;;;;;;;;;;;;;;;2.52;100.00;99836.66;5040434;28;19924;-56
2023/03/07 09:51:09;;;;;;;;;;;;;;;2.55;100.00;99838.47;5045477;28;19960;-56
2023/03/07 09:53:40;;;;;;;;;;;;;;;2.59;100.00;99846.28;5046978;28;19960;-56
2023/03/07 09:56:10;;;;;;;;;;;;;;;2.60;100.00;99842.06;5044765;28;19979;-58
2023/03/07 09:58:37;;;;;;;;;;;;;;;2.65;100.00;99843.16;5050889;28;20424;-55
2023/03/07 10:01:06;;;;;;;;;;;;;;;2.67;100.00;99841.56;5046144;28;19952;-56
2023/03/07 10:03:40;;;;;;;;;;;;;;;2.65;100.00;99843.16;5047466;28;20301;-55
2023/03/07 10:06:13;;;;;;;;;;;;;;;2.60;100.00;99837.84;5044653;28;20290;-58
2023/03/07 10:08:38;;;;;;;;;;;;;;;2.59;100.00;99842.88;5045498;28;19929;-55
2023/03/07 10:11:21;;;;;;;;;;;;;;;2.59;100.00;99842.88;5040029;28;20366;-58
2023/03/07 10:14:05;;;;;;;;;;;;;;;2.64;100.00;99837.19;5046378;28;20389;-61
2023/03/07 10:16:39;;;;;;;;;;;;;;;2.74;100.00;99830.00;5044569;28;20257;-54
2023/03/07 10:19:27;;;;;;;;;;;;;;;2.80;100.00;99831.13;5046090;28;19931;-54
2023/03/07 10:22:21;;;;;;;;;;;;;;;2.86;100.00;99839.00;5040135;28;19989;-55
2023/03/07 10:24:49;;;;;;;;;;;;;;;2.98;100.00;99842.88;5001450;28;19971;-54
2023/03/07 10:27:15;;;;;;;;;;;;;;;3.08;100.00;99835.66;5042785;28;19970;-55
2023/03/07 10:29:46;;;;;;;;;;;;;;;3.13;100.00;99828.25;5046873;28;19925;-55
2023/03/07 10:32:17;;;;;;;;;;;;;;;3.15;100.00;99831.69;5044515;28;19932;-54
2023/03/07 10:34:42;;;;;;;;;;;;;;;3.20;100.00;99841.25;5043282;28;19916;-54
2023/03/07 10:37:25;;;;;;;;;;;;;;;3.27;100.00;99837.28;5045545;28;19979;-54
2023/03/07 10:39:52;;;;;;;;;;;;;;;3.30;100.00;99834.88;5040503;28;20385;-55
2023/03/07 10:42:19;;;;;;;;;;;;;;;3.36;100.00;99839.34;5043404;28;19923;-56
2023/03/07 10:44:47;;;;;;;;;;;;;;;3.40;100.00;99837.00;5041560;28;20282;-56
2023/03/07 10:47:17;;;;;;;;;;;;;;;3.45;100.00;99835.47;5042652;28;19928;-55
2023/03/07 10:49:44;;;;;;;;;;;;;;;3.48;100.00;99842.38;5044272;28;19917;-55
2023/03/07 10:52:28;;;;;;;;;;;;;;;3.47;100.00;99835.56;5045861;28;19921;-55
2023/03/07 10:54:54;;;;;;;;;;;;;;;3.49;100.00;99833.94;5043025;28;19924;-55
2023/03/07 10:57:26;;;;;;;;;;;;;;;3.55;100.00;99838.41;5046145;28;19947;-54
2023/03/07 10:59:52;;;;;;;;;;;;;;;3.66;100.00;99835.47;5044786;28;20370;-55
2023/03/07 11:02:40;;;;;;;;;;;;;;;3.73;100.00;99829.81;5044344;28;19929;-55
2023/03/07 11:05:40;;;;;;;;;;;;;;;3.71;100.00;99839.06;5044834;28;19974;-55
2023/03/07 11:08:19;;;;;;;;;;;;;;;3.66;100.00;99840.56;4961758;28;19930;-58
2023/03/07 11:10:45;;;;;;;;;;;;;;;3.68;100.00;99833.84;5034651;28;19925;-56
2023/03/07 11:13:14;;;;;;;;;;;;;;;3.66;100.00;99835.47;5046079;28;20351;-59
2023/03/07 11:15:39;;;;;;;;;;;;;;;3.64;100.00;99832.00;5044853;28;19923;-55
2023/03/07 11:18:23;;;;;;;;;;;;;;;3.68;100.00;99833.84;5046422;28;19925;-55
2023/03/07 11:20:49;;;;;;;;;;;;;;;3.64;100.00;99826.94;5045870;28;19923;-56
2023/03/07 11:23:29;;;;;;;;;;;;;;;3.61;100.00;99843.72;5045747;28;20297;-55
2023/03/07 11:25:56;;;;;;;;;;;;;;;3.56;100.00;99835.91;5044849;28;20408;-55
2023/03/07 11:28:24;;;;;;;;;;;;;;;3.56;100.00;99837.59;5047918;28;20324;-55
2023/03/07 11:30:56;;;;;;;;;;;;;;;3.57;100.00;99829.16;5042472;28;20291;-55
2023/03/07 11:33:25;;;;;;;;;;;;;;;3.56;100.00;99832.50;5045849;28;19924;-54
2023/03/07 11:36:09;;;;;;;;;;;;;;;3.50;100.00;99834.00;5040744;28;20369;-54
2023/03/07 11:38:40;;;;;;;;;;;;;;;3.50;100.00;99834.00;5047425;28;19917;-55
2023/03/07 11:41:24;;;;;;;;;;;;;;;3.55;100.00;99831.63;5047341;28;20396;-55
2023/03/07 11:44:04;;;;;;;;;;;;;;;3.54;100.00;99832.44;5046316;28;19970;-55
2023/03/07 11:46:48;;;;;;;;;;;;;;;3.57;100.00;99834.22;5049700;28;19924;-55
2023/03/07 11:49:17;;;;;;;;;;;;;;;3.50;100.00;99830.59;5047194;28;20353;-54
2023/03/07 11:51:48;;;;;;;;;;;;;;;3.44;100.00;99825.25;5051317;28;19924;-55
2023/03/07 11:54:19;;;;;;;;;;;;;;;3.44;100.00;99833.75;5046819;28;20384;-55
2023/03/07 11:56:48;;;;;;;;;;;;;;;3.49;100.00;99828.84;5050856;28;19917;-55
2023/03/07 11:59:27;;;;;;;;;;;;;;;3.55;100.00;99831.63;5053513;28;19917;-55
2023/03/07 12:01:54;;;;;;;;;;;;;;;3.64;100.00;99826.03;5051597;28;19925;-56
2023/03/07 12:04:28;;;;;;;;;;;;;;;3.69;100.00;99827.94;5050042;28;20271;-55
2023/03/07 12:06:59;;;;;;;;;;;;;;;3.70;100.00;99827.16;5054041;28;20388;-55
2023/03/07 12:09:34;;;;;;;;;;;;;;;3.68;100.00;99828.75;5049537;28;19921;-56
2023/03/07 12:12:22;;;;;;;;;;;;;;;3.61;100.00;99824.25;5032345;28;19920;-55
2023/03/07 12:14:59;;;;;;;;;;;;;;;3.63;100.00;99825.16;5050365;28;19924;-55
2023/03/07 12:17:40;;;;;;;;;;;;;;;3.71;100.00;99822.94;5050633;28;19920;-59
2023/03/07 12:20:11;;;;;;;;;;;;;;;3.78;100.00;99821.50;5049539;28;20102;-55
2023/03/07 12:22:48;;;;;;;;;;;;;;;3.83;100.00;99827.63;5050263;28;20468;-55
2023/03/07 12:25:31;;;;;;;;;;;;;;;3.87;100.00;99826.94;5050359;28;19963;-60
2023/03/07 12:28:04;;;;;;;;;;;;;;;3.91;100.00;99826.25;5042433;28;19958;-55
2023/03/07 12:30:30;;;;;;;;;;;;;;;3.90;100.00;99824.53;5044432;28;19920;-55
2023/03/07 12:32:55;;;;;;;;;;;;;;;3.93;100.00;99819.53;5044457;28;19952;-55
2023/03/07 12:35:36;;;;;;;;;;;;;;;3.95;100.00;99828.97;5043852;28;19933;-55
2023/03/07 12:38:11;;;;;;;;;;;;;;;3.97;100.00;99829.03;5033051;28;21874;-55
2023/03/07 12:40:40;;;;;;;;;;;;;;;3.94;100.00;99824.69;5031588;28;20015;-55
2023/03/07 12:43:19;;;;;;;;;;;;;;;3.93;100.00;99827.16;5046472;28;20455;-59
2023/03/07 12:45:52;;;;;;;;;;;;;;;3.88;100.00;99826.97;5048944;28;19987;-57
2023/03/07 12:48:21;;;;;;;;;;;;;;;3.83;100.00;99823.41;5047255;28;19920;-59
2023/03/07 12:50:55;;;;;;;;;;;;;;;3.78;100.00;99824.91;5047505;28;20012;-57